sensor_id;sensor_type;location;lat;lon;timestamp;temperature;humidity
39997;DHT22;25688;52.338;21.072;2023-05-07T00:01:37;5.60;99.90
39997;DHT22;25688;52.338;21.072;2023-05-07T00:04:12;5.60;99.90
39997;DHT22;25688;52.338;21.072;2023-05-07T00:06:40;5.60;99.90
39997;DHT22;25688;52.338;21.072;2023-05-07T00:09:06;5.60;99.90
39997;DHT22;25688;52.338;21.072;2023-05-07T00:11:33;5.60;99.90
39997;DHT22;25688;52.338;21.072;2023-05-07T00:14:00;5.60;99.90
39997;DHT22;25688;52.338;21.072;2023-05-07T00:16:26;5.60;99.90
39997;DHT22;25688;52.338;21.072;2023-05-07T00:18:52;5.60;99.90
39997;DHT22;25688;52.338;21.072;2023-05-07T00:21:24;5.60;99.90
39997;DHT22;25688;52.338;21.072;2023-05-07T00:23:53;5.60;99.90
39997;DHT22;25688;52.338;21.072;2023-05-07T00:26:19;5.50;99.90
39997;DHT22;25688;52.338;21.072;2023-05-07T00:28:46;5.50;99.90
39997;DHT22;25688;52.338;21.072;2023-05-07T00:31:12;5.60;99.90
39997;DHT22;25688;52.338;21.072;2023-05-07T00:33:38;5.50;99.90
39997;DHT22;25688;52.338;21.072;2023-05-07T00:36:05;5.50;99.90
39997;DHT22;25688;52.338;21.072;2023-05-07T00:38:34;5.50;99.90
39997;DHT22;25688;52.338;21.072;2023-05-07T00:41:00;5.50;99.90
39997;DHT22;25688;52.338;21.072;2023-05-07T00:43:28;5.50;99.90
39997;DHT22;25688;52.338;21.072;2023-05-07T00:45:54;5.50;99.90
39997;DHT22;25688;52.338;21.072;2023-05-07T00:48:20;5.50;99.90
39997;DHT22;25688;52.338;21.072;2023-05-07T00:50:46;5.60;99.90
39997;DHT22;25688;52.338;21.072;2023-05-07T00:53:13;5.60;99.90
39997;DHT22;25688;52.338;21.072;2023-05-07T00:55:39;5.60;99.90
39997;DHT22;25688;52.338;21.072;2023-05-07T00:58:06;5.60;99.90
39997;DHT22;25688;52.338;21.072;2023-05-07T01:00:32;5.50;99.90
39997;DHT22;25688;52.338;21.072;2023-05-07T01:02:58;5.50;99.90
39997;DHT22;25688;52.338;21.072;2023-05-07T01:05:24;5.50;99.90
39997;DHT22;25688;52.338;21.072;2023-05-07T01:07:52;5.50;99.90
39997;DHT22;25688;52.338;21.072;2023-05-07T01:12:58;5.50;99.90
39997;DHT22;25688;52.338;21.072;2023-05-07T01:18:50;5.50;99.90
39997;DHT22;25688;52.338;21.072;2023-05-07T01:21:17;5.50;99.90
39997;DHT22;25688;52.338;21.072;2023-05-07T01:23:44;5.50;99.90
39997;DHT22;25688;52.338;21.072;2023-05-07T01:29:03;5.50;99.90
39997;DHT22;25688;52.338;21.072;2023-05-07T01:31:29;5.50;99.90
39997;DHT22;25688;52.338;21.072;2023-05-07T01:33:56;5.50;99.90
39997;DHT22;25688;52.338;21.072;2023-05-07T01:36:23;5.50;99.90
39997;DHT22;25688;52.338;21.072;2023-05-07T01:38:51;5.50;99.90
39997;DHT22;25688;52.338;21.072;2023-05-07T01:41:19;5.50;99.90
39997;DHT22;25688;52.338;21.072;2023-05-07T01:43:46;5.50;99.90
39997;DHT22;25688;52.338;21.072;2023-05-07T01:46:13;5.40;99.90
39997;DHT22;25688;52.338;21.072;2023-05-07T01:48:39;5.40;99.90
39997;DHT22;25688;52.338;21.072;2023-05-07T01:51:06;5.40;99.90
39997;DHT22;25688;52.338;21.072;2023-05-07T01:53:36;5.40;99.90
39997;DHT22;25688;52.338;21.072;2023-05-07T01:56:35;5.40;99.90
39997;DHT22;25688;52.338;21.072;2023-05-07T02:01:35;5.30;99.90
39997;DHT22;25688;52.338;21.072;2023-05-07T02:04:00;5.30;99.90
39997;DHT22;25688;52.338;21.072;2023-05-07T02:06:26;5.30;99.90
39997;DHT22;25688;52.338;21.072;2023-05-07T02:08:52;5.30;99.90
39997;DHT22;25688;52.338;21.072;2023-05-07T02:11:17;5.30;99.90
39997;DHT22;25688;52.338;21.072;2023-05-07T02:13:43;5.30;99.90
39997;DHT22;25688;52.338;21.072;2023-05-07T02:16:09;5.30;99.90
39997;DHT22;25688;52.338;21.072;2023-05-07T02:18:36;5.30;99.90
39997;DHT22;25688;52.338;21.072;2023-05-07T02:21:02;5.30;99.90
39997;DHT22;25688;52.338;21.072;2023-05-07T02:23:27;5.30;99.90
39997;DHT22;25688;52.338;21.072;2023-05-07T02:25:53;5.20;99.90
39997;DHT22;25688;52.338;21.072;2023-05-07T02:28:19;5.20;99.90
39997;DHT22;25688;52.338;21.072;2023-05-07T02:30:45;5.20;99.90
39997;DHT22;25688;52.338;21.072;2023-05-07T02:33:11;5.20;99.90
39997;DHT22;25688;52.338;21.072;2023-05-07T02:35:54;5.20;99.90
39997;DHT22;25688;52.338;21.072;2023-05-07T02:44:04;5.20;99.90
39997;DHT22;25688;52.338;21.072;2023-05-07T02:46:42;5.10;99.90
39997;DHT22;25688;52.338;21.072;2023-05-07T02:52:09;5.20;99.90
39997;DHT22;25688;52.338;21.072;2023-05-07T02:54:35;5.10;99.90
39997;DHT22;25688;52.338;21.072;2023-05-07T02:57:00;5.20;99.90
39997;DHT22;25688;52.338;21.072;2023-05-07T02:59:30;5.10;99.90
39997;DHT22;25688;52.338;21.072;2023-05-07T03:01:56;5.20;99.90
39997;DHT22;25688;52.338;21.072;2023-05-07T03:04:24;5.20;99.90
39997;DHT22;25688;52.338;21.072;2023-05-07T03:06:50;5.10;99.90
39997;DHT22;25688;52.338;21.072;2023-05-07T03:09:16;5.10;99.90
39997;DHT22;25688;52.338;21.072;2023-05-07T03:11:42;5.20;99.90
39997;DHT22;25688;52.338;21.072;2023-05-07T03:14:08;5.20;99.90
39997;DHT22;25688;52.338;21.072;2023-05-07T03:16:43;5.20;99.90
39997;DHT22;25688;52.338;21.072;2023-05-07T03:41:02;5.40;99.90
39997;DHT22;25688;52.338;21.072;2023-05-07T03:43:28;5.40;99.90
39997;DHT22;25688;52.338;21.072;2023-05-07T03:46:30;5.30;99.90
39997;DHT22;25688;52.338;21.072;2023-05-07T03:48:58;5.40;99.90
39997;DHT22;25688;52.338;21.072;2023-05-07T03:53:59;5.40;99.90
39997;DHT22;25688;52.338;21.072;2023-05-07T03:56:31;5.40;99.90
39997;DHT22;25688;52.338;21.072;2023-05-07T03:59:00;5.40;99.90
39997;DHT22;25688;52.338;21.072;2023-05-07T04:01:45;5.40;99.90
39997;DHT22;25688;52.338;21.072;2023-05-07T04:04:11;5.40;99.90
39997;DHT22;25688;52.338;21.072;2023-05-07T04:06:40;5.40;99.90
39997;DHT22;25688;52.338;21.072;2023-05-07T04:09:18;5.40;99.90
39997;DHT22;25688;52.338;21.072;2023-05-07T04:14:18;5.40;99.90
39997;DHT22;25688;52.338;21.072;2023-05-07T04:16:44;5.40;99.90
39997;DHT22;25688;52.338;21.072;2023-05-07T04:19:10;5.40;99.90
39997;DHT22;25688;52.338;21.072;2023-05-07T04:21:36;5.40;99.90
39997;DHT22;25688;52.338;21.072;2023-05-07T04:24:03;5.40;99.90
39997;DHT22;25688;52.338;21.072;2023-05-07T04:26:48;5.40;99.90
39997;DHT22;25688;52.338;21.072;2023-05-07T04:29:14;5.40;99.90
39997;DHT22;25688;52.338;21.072;2023-05-07T04:32:19;5.40;99.90
39997;DHT22;25688;52.338;21.072;2023-05-07T04:37:10;5.40;99.90
39997;DHT22;25688;52.338;21.072;2023-05-07T04:43:08;5.50;99.90
39997;DHT22;25688;52.338;21.072;2023-05-07T04:49:00;5.50;99.90
39997;DHT22;25688;52.338;21.072;2023-05-07T04:51:29;5.50;99.90
39997;DHT22;25688;52.338;21.072;2023-05-07T05:00:12;5.70;99.90
39997;DHT22;25688;52.338;21.072;2023-05-07T05:03:00;5.80;99.90
39997;DHT22;25688;52.338;21.072;2023-05-07T05:05:33;5.90;99.90
39997;DHT22;25688;52.338;21.072;2023-05-07T05:11:17;6.10;99.90
39997;DHT22;25688;52.338;21.072;2023-05-07T05:14:06;6.10;99.90
39997;DHT22;25688;52.338;21.072;2023-05-07T05:17:13;6.20;99.90
39997;DHT22;25688;52.338;21.072;2023-05-07T05:23:01;6.20;99.90
39997;DHT22;25688;52.338;21.072;2023-05-07T05:25:38;6.20;99.90
39997;DHT22;25688;52.338;21.072;2023-05-07T05:28:34;6.20;99.90
39997;DHT22;25688;52.338;21.072;2023-05-07T05:31:22;6.10;99.90
39997;DHT22;25688;52.338;21.072;2023-05-07T05:36:25;6.10;99.90
39997;DHT22;25688;52.338;21.072;2023-05-07T05:38:52;6.10;99.90
39997;DHT22;25688;52.338;21.072;2023-05-07T05:41:20;6.20;99.90
39997;DHT22;25688;52.338;21.072;2023-05-07T05:43:48;6.20;99.90
39997;DHT22;25688;52.338;21.072;2023-05-07T05:46:15;6.20;99.90
39997;DHT22;25688;52.338;21.072;2023-05-07T05:48:41;6.20;99.90
39997;DHT22;25688;52.338;21.072;2023-05-07T05:51:07;6.20;99.90
39997;DHT22;25688;52.338;21.072;2023-05-07T05:53:34;6.30;99.90
39997;DHT22;25688;52.338;21.072;2023-05-07T05:56:19;6.30;99.90
39997;DHT22;25688;52.338;21.072;2023-05-07T05:59:03;6.40;99.90
39997;DHT22;25688;52.338;21.072;2023-05-07T06:04:55;6.30;99.90
39997;DHT22;25688;52.338;21.072;2023-05-07T06:07:21;6.30;99.90
39997;DHT22;25688;52.338;21.072;2023-05-07T06:12:58;6.40;99.90
39997;DHT22;25688;52.338;21.072;2023-05-07T06:20:38;6.60;99.90
39997;DHT22;25688;52.338;21.072;2023-05-07T06:23:32;6.60;99.90
39997;DHT22;25688;52.338;21.072;2023-05-07T06:26:00;6.70;99.90
39997;DHT22;25688;52.338;21.072;2023-05-07T06:28:39;6.70;99.90
39997;DHT22;25688;52.338;21.072;2023-05-07T06:34:49;6.80;99.90
39997;DHT22;25688;52.338;21.072;2023-05-07T06:42:59;7.00;99.90
39997;DHT22;25688;52.338;21.072;2023-05-07T06:45:29;7.00;99.90
39997;DHT22;25688;52.338;21.072;2023-05-07T06:56:31;7.30;99.90
39997;DHT22;25688;52.338;21.072;2023-05-07T07:08:22;7.90;99.90
39997;DHT22;25688;52.338;21.072;2023-05-07T07:53:52;8.70;99.90
39997;DHT22;25688;52.338;21.072;2023-05-07T07:56:19;8.70;99.90
39997;DHT22;25688;52.338;21.072;2023-05-07T08:42:38;9.80;99.90
39997;DHT22;25688;52.338;21.072;2023-05-07T08:45:30;9.80;99.90
39997;DHT22;25688;52.338;21.072;2023-05-07T08:51:33;9.80;99.90
39997;DHT22;25688;52.338;21.072;2023-05-07T08:53:59;10.00;99.90
39997;DHT22;25688;52.338;21.072;2023-05-07T08:56:26;10.20;99.90
39997;DHT22;25688;52.338;21.072;2023-05-07T08:59:05;10.20;99.90
39997;DHT22;25688;52.338;21.072;2023-05-07T09:01:46;10.30;99.90
39997;DHT22;25688;52.338;21.072;2023-05-07T09:04:41;10.50;99.90
39997;DHT22;25688;52.338;21.072;2023-05-07T09:16:14;10.80;99.90
39997;DHT22;25688;52.338;21.072;2023-05-07T09:18:48;10.70;99.90
39997;DHT22;25688;52.338;21.072;2023-05-07T09:24:49;10.50;99.90
39997;DHT22;25688;52.338;21.072;2023-05-07T09:33:27;10.90;99.90
39997;DHT22;25688;52.338;21.072;2023-05-07T09:36:02;11.10;99.90
39997;DHT22;25688;52.338;21.072;2023-05-07T09:38:32;11.30;99.90
39997;DHT22;25688;52.338;21.072;2023-05-07T09:44:20;11.50;99.90
39997;DHT22;25688;52.338;21.072;2023-05-07T09:47:11;11.30;99.90
39997;DHT22;25688;52.338;21.072;2023-05-07T09:52:16;11.20;99.90
39997;DHT22;25688;52.338;21.072;2023-05-07T09:54:41;11.00;99.90
39997;DHT22;25688;52.338;21.072;2023-05-07T09:57:35;10.90;99.90
39997;DHT22;25688;52.338;21.072;2023-05-07T10:00:29;11.10;99.90
39997;DHT22;25688;52.338;21.072;2023-05-07T10:03:00;11.50;99.90
39997;DHT22;25688;52.338;21.072;2023-05-07T10:12:01;11.70;99.90
39997;DHT22;25688;52.338;21.072;2023-05-07T10:17:23;11.00;99.90
39997;DHT22;25688;52.338;21.072;2023-05-07T10:19:49;10.90;99.90
39997;DHT22;25688;52.338;21.072;2023-05-07T10:22:20;11.00;99.90
39997;DHT22;25688;52.338;21.072;2023-05-07T10:28:37;11.30;99.90
39997;DHT22;25688;52.338;21.072;2023-05-07T10:34:09;11.90;99.90
39997;DHT22;25688;52.338;21.072;2023-05-07T10:36:48;11.60;99.90
39997;DHT22;25688;52.338;21.072;2023-05-07T10:39:23;11.30;99.90
39997;DHT22;25688;52.338;21.072;2023-05-07T10:45:36;11.00;99.90
39997;DHT22;25688;52.338;21.072;2023-05-07T10:48:12;11.20;99.90
39997;DHT22;25688;52.338;21.072;2023-05-07T10:50:40;11.60;99.90
39997;DHT22;25688;52.338;21.072;2023-05-07T10:56:41;12.10;99.90
39997;DHT22;25688;52.338;21.072;2023-05-07T11:02:09;11.70;99.90
39997;DHT22;25688;52.338;21.072;2023-05-07T11:15:40;11.80;99.90
39997;DHT22;25688;52.338;21.072;2023-05-07T11:18:46;11.90;99.90
39997;DHT22;25688;52.338;21.072;2023-05-07T11:36:21;11.90;99.90
39997;DHT22;25688;52.338;21.072;2023-05-07T11:45:35;11.70;99.90
39997;DHT22;25688;52.338;21.072;2023-05-07T11:48:36;12.00;99.90
39997;DHT22;25688;52.338;21.072;2023-05-07T11:51:22;12.30;99.90
39997;DHT22;25688;52.338;21.072;2023-05-07T11:53:54;12.30;99.90
39997;DHT22;25688;52.338;21.072;2023-05-07T11:56:22;12.50;99.90
39997;DHT22;25688;52.338;21.072;2023-05-07T12:05:06;12.50;99.90
39997;DHT22;25688;52.338;21.072;2023-05-07T12:10:18;12.60;99.90
39997;DHT22;25688;52.338;21.072;2023-05-07T12:15:54;12.80;99.90
39997;DHT22;25688;52.338;21.072;2023-05-07T12:18:21;12.90;99.90
39997;DHT22;25688;52.338;21.072;2023-05-07T12:26:58;13.40;99.90
39997;DHT22;25688;52.338;21.072;2023-05-07T12:29:28;13.20;99.90
39997;DHT22;25688;52.338;21.072;2023-05-07T12:42:09;12.20;99.90
39997;DHT22;25688;52.338;21.072;2023-05-07T12:59:34;12.80;99.90
39997;DHT22;25688;52.338;21.072;2023-05-07T13:02:04;12.70;99.90
39997;DHT22;25688;52.338;21.072;2023-05-07T13:04:30;12.80;99.90
39997;DHT22;25688;52.338;21.072;2023-05-07T13:22:24;12.00;99.90
39997;DHT22;25688;52.338;21.072;2023-05-07T13:24:55;12.00;99.90
39997;DHT22;25688;52.338;21.072;2023-05-07T13:27:20;12.20;99.90
39997;DHT22;25688;52.338;21.072;2023-05-07T13:33:13;12.30;99.90
39997;DHT22;25688;52.338;21.072;2023-05-07T13:35:41;12.40;99.90
39997;DHT22;25688;52.338;21.072;2023-05-07T13:38:07;12.20;99.90
39997;DHT22;25688;52.338;21.072;2023-05-07T13:41:08;12.30;99.90
39997;DHT22;25688;52.338;21.072;2023-05-07T13:43:36;12.30;99.90
39997;DHT22;25688;52.338;21.072;2023-05-07T13:46:02;12.30;99.90
39997;DHT22;25688;52.338;21.072;2023-05-07T13:48:28;12.30;99.90
39997;DHT22;25688;52.338;21.072;2023-05-07T13:50:54;12.40;99.90
39997;DHT22;25688;52.338;21.072;2023-05-07T13:53:20;12.40;99.90
39997;DHT22;25688;52.338;21.072;2023-05-07T13:55:58;12.60;99.90
39997;DHT22;25688;52.338;21.072;2023-05-07T13:58:34;12.80;99.90
39997;DHT22;25688;52.338;21.072;2023-05-07T14:01:22;12.80;99.90
39997;DHT22;25688;52.338;21.072;2023-05-07T14:03:48;12.80;99.90
39997;DHT22;25688;52.338;21.072;2023-05-07T14:09:18;12.80;99.90
39997;DHT22;25688;52.338;21.072;2023-05-07T14:11:44;12.80;99.90
39997;DHT22;25688;52.338;21.072;2023-05-07T14:17:29;12.80;99.90
39997;DHT22;25688;52.338;21.072;2023-05-07T14:19:55;12.50;99.90
39997;DHT22;25688;52.338;21.072;2023-05-07T14:22:30;12.50;99.90
39997;DHT22;25688;52.338;21.072;2023-05-07T14:24:56;12.40;99.90
39997;DHT22;25688;52.338;21.072;2023-05-07T14:28:05;12.50;99.90
39997;DHT22;25688;52.338;21.072;2023-05-07T14:30:49;12.50;99.90
39997;DHT22;25688;52.338;21.072;2023-05-07T14:36:07;12.50;99.90
39997;DHT22;25688;52.338;21.072;2023-05-07T14:38:36;12.50;99.90
39997;DHT22;25688;52.338;21.072;2023-05-07T14:41:05;12.50;99.90
39997;DHT22;25688;52.338;21.072;2023-05-07T14:43:30;12.50;99.90
39997;DHT22;25688;52.338;21.072;2023-05-07T14:46:09;12.60;99.90
39997;DHT22;25688;52.338;21.072;2023-05-07T14:48:35;12.60;99.90
39997;DHT22;25688;52.338;21.072;2023-05-07T14:51:05;12.60;99.90
39997;DHT22;25688;52.338;21.072;2023-05-07T14:53:36;12.60;99.90
39997;DHT22;25688;52.338;21.072;2023-05-07T14:56:08;12.60;99.90
39997;DHT22;25688;52.338;21.072;2023-05-07T15:04:27;12.60;99.90
39997;DHT22;25688;52.338;21.072;2023-05-07T15:07:05;12.60;99.90
39997;DHT22;25688;52.338;21.072;2023-05-07T15:09:34;12.50;99.90
39997;DHT22;25688;52.338;21.072;2023-05-07T15:21:21;12.50;99.90
39997;DHT22;25688;52.338;21.072;2023-05-07T15:23:47;12.40;99.90
39997;DHT22;25688;52.338;21.072;2023-05-07T15:26:13;12.40;99.90
39997;DHT22;25688;52.338;21.072;2023-05-07T15:32:25;12.30;99.90
39997;DHT22;25688;52.338;21.072;2023-05-07T15:34:51;12.30;99.90
39997;DHT22;25688;52.338;21.072;2023-05-07T15:37:20;12.30;99.90
39997;DHT22;25688;52.338;21.072;2023-05-07T15:39:45;12.30;99.90
39997;DHT22;25688;52.338;21.072;2023-05-07T15:42:17;12.30;99.90
39997;DHT22;25688;52.338;21.072;2023-05-07T15:47:52;12.30;99.90
39997;DHT22;25688;52.338;21.072;2023-05-07T15:50:18;12.30;99.90
39997;DHT22;25688;52.338;21.072;2023-05-07T15:55:09;12.20;99.90
39997;DHT22;25688;52.338;21.072;2023-05-07T16:00:59;12.10;99.90
39997;DHT22;25688;52.338;21.072;2023-05-07T16:06:54;12.20;99.90
39997;DHT22;25688;52.338;21.072;2023-05-07T16:09:21;12.10;99.90
39997;DHT22;25688;52.338;21.072;2023-05-07T16:12:00;12.20;99.90
39997;DHT22;25688;52.338;21.072;2023-05-07T16:14:26;12.10;99.90
39997;DHT22;25688;52.338;21.072;2023-05-07T16:17:00;12.10;99.90
39997;DHT22;25688;52.338;21.072;2023-05-07T16:19:28;12.10;99.90
39997;DHT22;25688;52.338;21.072;2023-05-07T16:22:19;12.10;99.90
39997;DHT22;25688;52.338;21.072;2023-05-07T16:25:11;12.00;99.90
39997;DHT22;25688;52.338;21.072;2023-05-07T16:27:39;11.90;99.90
39997;DHT22;25688;52.338;21.072;2023-05-07T16:32:53;11.60;99.90
39997;DHT22;25688;52.338;21.072;2023-05-07T16:46:47;11.70;99.90
39997;DHT22;25688;52.338;21.072;2023-05-07T16:52:01;11.50;99.90
39997;DHT22;25688;52.338;21.072;2023-05-07T16:54:30;11.50;99.90
39997;DHT22;25688;52.338;21.072;2023-05-07T16:57:30;11.50;99.90
39997;DHT22;25688;52.338;21.072;2023-05-07T16:59:57;11.50;99.90
39997;DHT22;25688;52.338;21.072;2023-05-07T17:02:24;11.50;99.90
39997;DHT22;25688;52.338;21.072;2023-05-07T17:04:50;11.40;99.90
39997;DHT22;25688;52.338;21.072;2023-05-07T17:10:06;11.20;99.90
39997;DHT22;25688;52.338;21.072;2023-05-07T17:16:04;10.90;99.90
39997;DHT22;25688;52.338;21.072;2023-05-07T17:21:41;10.80;99.90
39997;DHT22;25688;52.338;21.072;2023-05-07T17:24:07;10.60;99.90
39997;DHT22;25688;52.338;21.072;2023-05-07T17:29:11;10.50;99.90
39997;DHT22;25688;52.338;21.072;2023-05-07T17:37:49;10.10;99.90
39997;DHT22;25688;52.338;21.072;2023-05-07T17:40:20;9.90;99.90
39997;DHT22;25688;52.338;21.072;2023-05-07T17:45:43;9.70;99.90
39997;DHT22;25688;52.338;21.072;2023-05-07T17:48:09;9.50;99.90
39997;DHT22;25688;52.338;21.072;2023-05-07T17:57:03;9.10;99.90
39997;DHT22;25688;52.338;21.072;2023-05-07T17:59:28;9.00;99.90
39997;DHT22;25688;52.338;21.072;2023-05-07T18:02:06;8.90;99.90
39997;DHT22;25688;52.338;21.072;2023-05-07T18:04:32;8.80;99.90
39997;DHT22;25688;52.338;21.072;2023-05-07T18:07:01;8.60;99.90
39997;DHT22;25688;52.338;21.072;2023-05-07T18:28:13;7.20;99.90
39997;DHT22;25688;52.338;21.072;2023-05-07T18:33:07;6.90;99.90
39997;DHT22;25688;52.338;21.072;2023-05-07T18:35:33;6.80;99.90
39997;DHT22;25688;52.338;21.072;2023-05-07T18:38:30;6.80;99.90
39997;DHT22;25688;52.338;21.072;2023-05-07T18:44:17;6.80;99.90
39997;DHT22;25688;52.338;21.072;2023-05-07T18:46:43;6.80;99.90
39997;DHT22;25688;52.338;21.072;2023-05-07T18:49:12;6.80;99.90
39997;DHT22;25688;52.338;21.072;2023-05-07T18:51:38;6.80;99.90
39997;DHT22;25688;52.338;21.072;2023-05-07T18:54:03;6.70;99.90
39997;DHT22;25688;52.338;21.072;2023-05-07T18:56:30;6.70;99.90
39997;DHT22;25688;52.338;21.072;2023-05-07T18:58:58;6.60;99.90
39997;DHT22;25688;52.338;21.072;2023-05-07T19:01:24;6.50;99.90
39997;DHT22;25688;52.338;21.072;2023-05-07T19:03:50;6.40;99.90
39997;DHT22;25688;52.338;21.072;2023-05-07T19:06:15;6.40;99.90
39997;DHT22;25688;52.338;21.072;2023-05-07T19:08:41;6.30;99.90
39997;DHT22;25688;52.338;21.072;2023-05-07T19:14:00;6.20;99.90
39997;DHT22;25688;52.338;21.072;2023-05-07T19:16:26;6.20;99.90
39997;DHT22;25688;52.338;21.072;2023-05-07T19:18:51;6.10;99.90
39997;DHT22;25688;52.338;21.072;2023-05-07T19:24:54;5.80;99.90
39997;DHT22;25688;52.338;21.072;2023-05-07T19:27:20;5.80;99.90
39997;DHT22;25688;52.338;21.072;2023-05-07T19:29:49;5.60;99.90
39997;DHT22;25688;52.338;21.072;2023-05-07T19:32:14;5.50;99.90
39997;DHT22;25688;52.338;21.072;2023-05-07T19:34:40;5.40;99.90
39997;DHT22;25688;52.338;21.072;2023-05-07T19:37:06;5.20;99.90
39997;DHT22;25688;52.338;21.072;2023-05-07T19:39:32;5.10;99.90
39997;DHT22;25688;52.338;21.072;2023-05-07T19:42:00;5.00;99.90
39997;DHT22;25688;52.338;21.072;2023-05-07T19:44:29;4.80;99.90
39997;DHT22;25688;52.338;21.072;2023-05-07T19:46:54;4.70;99.90
39997;DHT22;25688;52.338;21.072;2023-05-07T19:52:36;4.30;99.90
39997;DHT22;25688;52.338;21.072;2023-05-07T19:55:02;4.10;99.90
39997;DHT22;25688;52.338;21.072;2023-05-07T20:00:42;3.90;99.90
39997;DHT22;25688;52.338;21.072;2023-05-07T20:03:26;3.80;99.90
39997;DHT22;25688;52.338;21.072;2023-05-07T20:13:49;3.50;99.90
39997;DHT22;25688;52.338;21.072;2023-05-07T20:21:21;3.20;99.90
39997;DHT22;25688;52.338;21.072;2023-05-07T20:27:09;3.10;99.90
39997;DHT22;25688;52.338;21.072;2023-05-07T20:29:35;3.00;99.90
39997;DHT22;25688;52.338;21.072;2023-05-07T20:32:13;3.00;99.90
39997;DHT22;25688;52.338;21.072;2023-05-07T20:34:43;2.90;99.90
39997;DHT22;25688;52.338;21.072;2023-05-07T20:37:21;2.90;99.90
39997;DHT22;25688;52.338;21.072;2023-05-07T20:46:38;2.70;99.90
39997;DHT22;25688;52.338;21.072;2023-05-07T20:49:17;2.60;99.90
39997;DHT22;25688;52.338;21.072;2023-05-07T21:00:33;2.30;99.90
39997;DHT22;25688;52.338;21.072;2023-05-07T21:06:22;2.20;99.90
39997;DHT22;25688;52.338;21.072;2023-05-07T21:11:13;2.30;99.90
39997;DHT22;25688;52.338;21.072;2023-05-07T21:13:39;2.30;99.90
39997;DHT22;25688;52.338;21.072;2023-05-07T21:24:21;2.10;99.90
39997;DHT22;25688;52.338;21.072;2023-05-07T21:26:52;2.00;99.90
39997;DHT22;25688;52.338;21.072;2023-05-07T21:29:36;2.00;99.90
39997;DHT22;25688;52.338;21.072;2023-05-07T21:32:05;1.90;99.90
39997;DHT22;25688;52.338;21.072;2023-05-07T21:34:37;1.90;99.90
39997;DHT22;25688;52.338;21.072;2023-05-07T21:37:19;1.90;99.90
39997;DHT22;25688;52.338;21.072;2023-05-07T21:39:45;1.80;99.90
39997;DHT22;25688;52.338;21.072;2023-05-07T21:45:29;1.70;99.90
39997;DHT22;25688;52.338;21.072;2023-05-07T21:57:34;1.30;99.90
39997;DHT22;25688;52.338;21.072;2023-05-07T22:34:06;0.90;99.90
39997;DHT22;25688;52.338;21.072;2023-05-07T22:36:38;0.80;99.90
39997;DHT22;25688;52.338;21.072;2023-05-07T22:39:07;0.70;99.90
39997;DHT22;25688;52.338;21.072;2023-05-07T22:41:35;0.70;99.90
39997;DHT22;25688;52.338;21.072;2023-05-07T22:44:06;0.60;99.90
39997;DHT22;25688;52.338;21.072;2023-05-07T22:46:46;0.60;99.90
39997;DHT22;25688;52.338;21.072;2023-05-07T22:49:14;0.50;99.90
39997;DHT22;25688;52.338;21.072;2023-05-07T22:51:46;0.50;99.90
39997;DHT22;25688;52.338;21.072;2023-05-07T22:54:11;0.50;99.90
39997;DHT22;25688;52.338;21.072;2023-05-07T22:59:12;0.40;99.90
39997;DHT22;25688;52.338;21.072;2023-05-07T23:01:39;0.30;99.90
39997;DHT22;25688;52.338;21.072;2023-05-07T23:06:30;0.20;99.90
39997;DHT22;25688;52.338;21.072;2023-05-07T23:13:10;0.10;99.90
39997;DHT22;25688;52.338;21.072;2023-05-07T23:15:44;0.00;99.90
39997;DHT22;25688;52.338;21.072;2023-05-07T23:18:10;0.00;99.90
39997;DHT22;25688;52.338;21.072;2023-05-07T23:20:36;0.00;99.90
39997;DHT22;25688;52.338;21.072;2023-05-07T23:34:50;0.10;99.90
39997;DHT22;25688;52.338;21.072;2023-05-07T23:39:54;0.00;99.90
39997;DHT22;25688;52.338;21.072;2023-05-07T23:51:44;-0.20;99.90
39997;DHT22;25688;52.338;21.072;2023-05-07T23:54:10;-0.30;99.90
39997;DHT22;25688;52.338;21.072;2023-05-07T23:56:36;-0.40;99.90
39997;DHT22;25688;52.338;21.072;2023-05-07T23:59:02;-0.30;99.90
